Time;durP1;ratioP1;P1;durP2;ratioP2;P2;SDS_P1;SDS_P2;PMS_P1;PMS_P2;Temp;Humidity;BMP_temperature;BMP_pressure;BME280_temperature;BME280_humidity;BME280_pressure;Samples;Min_cycle;Max_cycle;Signal;HPM_P1;HPM_P2
2022/07/20 00:01:40;;;;;;;6.35;3.42;;;;;;;;;;5079694;28;20199;-40
2022/07/20 00:04:07;;;;;;;6.55;3.08;;;;;;;;;;5087876;28;20284;-37
2022/07/20 00:06:36;;;;;;;4.03;3.25;;;;;;;;;;5058103;28;20228;-39
2022/07/20 00:11:48;;;;;;;3.60;3.30;;;;;;;;;;5071063;28;20327;-43
2022/07/20 00:14:17;;;;;;;3.30;3.00;;;;;;;;;;5059959;28;20213;-43
2022/07/20 00:16:44;;;;;;;3.97;2.88;;;;;;;;;;5065713;28;20220;-41
2022/07/20 00:19:11;;;;;;;3.53;3.15;;;;;;;;;;5085961;28;20212;-43
2022/07/20 00:21:39;;;;;;;6.38;3.13;;;;;;;;;;5067511;28;20201;-44
2022/07/20 00:24:07;;;;;;;4.88;2.95;;;;;;;;;;5077904;28;20212;-46
2022/07/20 00:26:34;;;;;;;4.53;3.33;;;;;;;;;;5071623;28;20228;-44
2022/07/20 00:29:01;;;;;;;5.28;3.05;;;;;;;;;;5067806;28;20213;-44
2022/07/20 00:31:28;;;;;;;5.10;3.47;;;;;;;;;;5073852;28;20201;-39
2022/07/20 00:33:55;;;;;;;3.97;3.22;;;;;;;;;;5071017;28;20217;-44
2022/07/20 00:36:22;;;;;;;5.15;3.35;;;;;;;;;;5059822;28;20230;-42
2022/07/20 00:38:51;;;;;;;5.10;3.17;;;;;;;;;;5075131;28;20197;-44
2022/07/20 00:41:18;;;;;;;3.78;3.42;;;;;;;;;;5050705;28;20208;-43
2022/07/20 00:43:59;;;;;;;5.82;3.50;;;;;;;;;;5049519;28;20217;-45
2022/07/20 00:46:27;;;;;;;3.97;3.58;;;;;;;;;;5069933;28;20220;-43
2022/07/20 00:48:54;;;;;;;3.60;3.22;;;;;;;;;;5073354;28;20294;-38
2022/07/20 00:51:21;;;;;;;5.25;3.25;;;;;;;;;;5060098;28;20219;-38
2022/07/20 00:53:48;;;;;;;3.33;3.03;;;;;;;;;;5069985;28;20210;-42
2022/07/20 00:56:18;;;;;;;3.03;2.80;;;;;;;;;;5068275;28;20214;-44
2022/07/20 00:58:45;;;;;;;4.10;3.00;;;;;;;;;;5069207;28;20413;-43
2022/07/20 01:01:12;;;;;;;4.03;2.95;;;;;;;;;;5058676;28;20216;-41
2022/07/20 01:03:39;;;;;;;4.55;3.55;;;;;;;;;;5061889;28;20208;-40
2022/07/20 01:06:07;;;;;;;4.32;3.25;;;;;;;;;;5058297;28;20206;-43
2022/07/20 01:08:34;;;;;;;4.25;3.15;;;;;;;;;;5077588;28;20199;-43
2022/07/20 01:11:02;;;;;;;5.40;3.45;;;;;;;;;;5069144;28;20569;-43
2022/07/20 01:13:30;;;;;;;5.90;3.25;;;;;;;;;;5068132;28;20207;-40
2022/07/20 01:15:58;;;;;;;6.53;3.67;;;;;;;;;;5063754;28;20244;-43
2022/07/20 01:18:25;;;;;;;5.15;3.38;;;;;;;;;;5090533;28;20215;-43
2022/07/20 01:20:52;;;;;;;8.15;3.50;;;;;;;;;;5061614;28;20215;-40
2022/07/20 01:23:21;;;;;;;4.13;3.20;;;;;;;;;;5062328;28;20200;-44
2022/07/20 01:25:49;;;;;;;3.63;3.33;;;;;;;;;;5070004;28;20197;-42
2022/07/20 01:28:16;;;;;;;5.43;3.53;;;;;;;;;;5066110;28;20542;-41
2022/07/20 01:30:43;;;;;;;4.57;3.38;;;;;;;;;;5062872;28;20215;-45
2022/07/20 01:33:10;;;;;;;5.80;3.33;;;;;;;;;;5078263;28;20258;-40
2022/07/20 01:35:38;;;;;;;5.70;3.25;;;;;;;;;;5060161;28;20228;-45
2022/07/20 01:38:05;;;;;;;7.47;3.90;;;;;;;;;;5076125;28;20227;-42
2022/07/20 01:40:34;;;;;;;7.13;3.42;;;;;;;;;;5062405;28;20200;-43
2022/07/20 01:43:01;;;;;;;5.65;3.13;;;;;;;;;;5068247;28;20225;-39
2022/07/20 01:45:28;;;;;;;7.55;3.40;;;;;;;;;;5071202;28;20203;-38
2022/07/20 01:47:55;;;;;;;3.30;2.95;;;;;;;;;;5077609;28;20231;-41
2022/07/20 01:50:22;;;;;;;3.30;3.00;;;;;;;;;;5061625;28;20207;-41
2022/07/20 01:52:50;;;;;;;4.95;3.50;;;;;;;;;;5068033;28;20207;-44
2022/07/20 01:55:17;;;;;;;4.18;3.08;;;;;;;;;;5073074;28;20230;-39
2022/07/20 01:57:45;;;;;;;3.67;3.17;;;;;;;;;;5090740;28;20220;-44
2022/07/20 02:00:13;;;;;;;4.00;3.15;;;;;;;;;;5066527;28;20222;-43
2022/07/20 02:02:40;;;;;;;4.43;3.17;;;;;;;;;;5069547;28;20200;-41
2022/07/20 02:05:08;;;;;;;3.88;3.28;;;;;;;;;;5073627;28;20210;-42
2022/07/20 02:07:35;;;;;;;5.82;3.45;;;;;;;;;;5057865;28;20227;-43
2022/07/20 02:10:02;;;;;;;7.03;3.40;;;;;;;;;;5085236;28;20203;-44
2022/07/20 02:12:29;;;;;;;4.05;3.20;;;;;;;;;;5071994;28;20202;-42
2022/07/20 02:14:58;;;;;;;3.63;2.97;;;;;;;;;;5067779;28;20238;-43
2022/07/20 02:17:25;;;;;;;3.53;3.05;;;;;;;;;;5094348;28;20258;-40
2022/07/20 02:19:52;;;;;;;4.25;2.90;;;;;;;;;;5078944;28;20214;-45
2022/07/20 02:22:19;;;;;;;5.00;3.28;;;;;;;;;;5062107;28;20213;-41
2022/07/20 02:24:47;;;;;;;3.38;2.92;;;;;;;;;;5075185;28;20439;-41
2022/07/20 02:27:14;;;;;;;5.32;3.08;;;;;;;;;;5073984;28;20231;-42
2022/07/20 02:29:41;;;;;;;4.50;3.13;;;;;;;;;;5064026;28;20211;-38
2022/07/20 02:32:10;;;;;;;6.13;3.60;;;;;;;;;;5074789;28;20546;-43
2022/07/20 02:34:37;;;;;;;7.57;2.78;;;;;;;;;;5066101;28;20271;-44
2022/07/20 02:37:04;;;;;;;3.72;3.08;;;;;;;;;;5059805;28;20235;-40
2022/07/20 02:39:31;;;;;;;6.55;3.28;;;;;;;;;;5081354;28;20191;-41
2022/07/20 02:41:58;;;;;;;5.05;3.38;;;;;;;;;;5072104;28;20278;-39
2022/07/20 02:44:25;;;;;;;6.03;3.38;;;;;;;;;;5068164;28;20202;-43
2022/07/20 02:46:54;;;;;;;3.75;3.28;;;;;;;;;;5077484;28;20258;-43
2022/07/20 02:49:22;;;;;;;5.07;3.17;;;;;;;;;;5069846;28;20293;-42
2022/07/20 02:51:49;;;;;;;4.10;2.95;;;;;;;;;;5065472;28;20212;-42
2022/07/20 02:54:16;;;;;;;4.45;2.85;;;;;;;;;;5076007;28;20203;-43
2022/07/20 02:56:44;;;;;;;2.95;2.63;;;;;;;;;;5072871;28;20244;-37
2022/07/20 02:59:13;;;;;;;5.75;3.28;;;;;;;;;;5061331;28;20211;-43
2022/07/20 03:01:40;;;;;;;3.40;2.92;;;;;;;;;;5063793;28;20207;-40
2022/07/20 03:04:07;;;;;;;6.43;3.22;;;;;;;;;;5063079;28;20207;-44
2022/07/20 03:06:36;;;;;;;5.65;2.88;;;;;;;;;;5070147;28;20214;-43
2022/07/20 03:09:04;;;;;;;3.53;3.00;;;;;;;;;;5074042;28;20211;-45
2022/07/20 03:11:31;;;;;;;4.10;3.63;;;;;;;;;;5072175;28;20200;-42
2022/07/20 03:13:58;;;;;;;3.38;2.85;;;;;;;;;;5070149;28;20474;-43
2022/07/20 03:16:25;;;;;;;3.42;3.13;;;;;;;;;;5079388;28;20223;-43
2022/07/20 03:18:53;;;;;;;3.20;2.90;;;;;;;;;;5072787;28;20506;-44
2022/07/20 03:21:20;;;;;;;6.13;3.53;;;;;;;;;;5057591;28;20198;-45
2022/07/20 03:23:49;;;;;;;3.75;3.40;;;;;;;;;;5075948;28;20199;-45
2022/07/20 03:26:17;;;;;;;3.53;3.22;;;;;;;;;;5092272;28;20231;-39
2022/07/20 03:28:44;;;;;;;3.67;3.05;;;;;;;;;;5073045;28;20209;-43
2022/07/20 03:31:11;;;;;;;4.50;3.38;;;;;;;;;;5063494;28;20221;-38
2022/07/20 03:33:38;;;;;;;3.38;3.05;;;;;;;;;;5079875;28;20195;-43
2022/07/20 03:36:05;;;;;;;3.50;2.92;;;;;;;;;;5068186;28;20235;-45
2022/07/20 03:38:33;;;;;;;5.25;3.20;;;;;;;;;;5070001;28;20208;-42
2022/07/20 03:41:01;;;;;;;3.30;3.00;;;;;;;;;;5073559;28;20206;-41
2022/07/20 03:43:28;;;;;;;4.90;3.30;;;;;;;;;;5059949;28;20566;-43
2022/07/20 03:48:24;;;;;;;3.60;3.30;;;;;;;;;;5044647;28;20212;-40
2022/07/20 03:50:52;;;;;;;3.17;2.88;;;;;;;;;;5031676;28;20204;-43
2022/07/20 03:53:19;;;;;;;5.80;3.40;;;;;;;;;;5053278;28;20211;-38
2022/07/20 03:55:46;;;;;;;3.70;3.30;;;;;;;;;;5067391;28;20228;-38
2022/07/20 03:58:14;;;;;;;2.90;2.70;;;;;;;;;;5065483;28;20319;-38
2022/07/20 04:00:42;;;;;;;4.18;3.38;;;;;;;;;;5049180;28;20219;-37
2022/07/20 04:03:09;;;;;;;4.75;3.30;;;;;;;;;;5064587;28;20216;-34
2022/07/20 04:05:36;;;;;;;7.22;3.20;;;;;;;;;;5049406;28;20207;-36
2022/07/20 04:08:03;;;;;;;4.85;3.30;;;;;;;;;;5060073;28;20232;-40
2022/07/20 04:10:30;;;;;;;5.13;3.45;;;;;;;;;;5070102;28;20562;-38
2022/07/20 04:13:16;;;;;;;3.75;3.38;;;;;;;;;;5051063;28;20578;-37
2022/07/20 04:15:44;;;;;;;3.70;2.83;;;;;;;;;;5072443;28;20222;-42
2022/07/20 04:18:12;;;;;;;4.25;3.33;;;;;;;;;;5062962;28;20239;-36
2022/07/20 04:20:39;;;;;;;4.90;3.30;;;;;;;;;;5043285;28;20212;-38
2022/07/20 04:23:06;;;;;;;3.47;2.88;;;;;;;;;;5057641;28;20268;-37
2022/07/20 04:25:33;;;;;;;4.63;3.40;;;;;;;;;;5072897;28;20225;-35
2022/07/20 04:28:01;;;;;;;3.50;3.20;;;;;;;;;;5058078;28;20240;-38
2022/07/20 04:30:28;;;;;;;3.67;3.10;;;;;;;;;;5048603;28;20212;-38
2022/07/20 04:32:57;;;;;;;6.65;3.63;;;;;;;;;;5072725;28;20207;-31
2022/07/20 04:35:24;;;;;;;4.78;3.10;;;;;;;;;;5053512;28;20225;-38
2022/07/20 04:37:51;;;;;;;3.65;3.10;;;;;;;;;;5053517;28;20228;-40
2022/07/20 04:40:18;;;;;;;4.47;3.40;;;;;;;;;;5061256;28;20207;-37
2022/07/20 04:42:45;;;;;;;5.45;2.92;;;;;;;;;;5052501;28;20198;-36
2022/07/20 04:45:12;;;;;;;3.90;3.60;;;;;;;;;;5055035;28;20212;-34
2022/07/20 04:47:39;;;;;;;3.58;3.15;;;;;;;;;;5065248;28;20234;-36
2022/07/20 04:50:08;;;;;;;3.97;2.70;;;;;;;;;;5053335;28;20216;-36
2022/07/20 04:52:36;;;;;;;3.72;3.40;;;;;;;;;;5060432;28;20203;-39
2022/07/20 04:55:03;;;;;;;3.38;3.05;;;;;;;;;;5072297;28;20206;-40
2022/07/20 04:57:30;;;;;;;3.33;3.03;;;;;;;;;;5070593;28;20224;-40
2022/07/20 04:59:57;;;;;;;3.83;3.42;;;;;;;;;;5046920;28;20222;-36
2022/07/20 05:02:24;;;;;;;4.38;3.20;;;;;;;;;;5067152;28;20202;-37
2022/07/20 05:04:51;;;;;;;4.40;3.50;;;;;;;;;;5061851;28;20211;-34
2022/07/20 05:07:20;;;;;;;5.85;3.83;;;;;;;;;;5047227;28;20256;-39
2022/07/20 05:09:47;;;;;;;7.45;3.35;;;;;;;;;;5066296;28;20209;-41
2022/07/20 05:12:14;;;;;;;4.97;3.67;;;;;;;;;;5049569;28;20213;-41
2022/07/20 05:14:41;;;;;;;4.20;3.30;;;;;;;;;;5050809;28;20207;-37
2022/07/20 05:17:08;;;;;;;3.97;3.20;;;;;;;;;;5043730;28;20313;-39
2022/07/20 05:19:35;;;;;;;9.27;3.85;;;;;;;;;;5055973;28;20208;-32
2022/07/20 05:22:03;;;;;;;4.30;3.58;;;;;;;;;;5049005;28;20217;-35
2022/07/20 05:24:31;;;;;;;4.53;3.85;;;;;;;;;;5071448;28;20206;-41
2022/07/20 05:26:58;;;;;;;5.05;3.85;;;;;;;;;;5066546;28;20235;-37
2022/07/20 05:29:25;;;;;;;4.43;4.00;;;;;;;;;;5061750;28;20297;-36
2022/07/20 05:31:52;;;;;;;4.75;4.00;;;;;;;;;;5071966;28;20207;-40
2022/07/20 05:34:19;;;;;;;3.83;3.45;;;;;;;;;;5066812;28;20218;-40
2022/07/20 05:36:47;;;;;;;5.82;3.83;;;;;;;;;;5052701;28;20320;-34
2022/07/20 05:39:14;;;;;;;6.03;3.60;;;;;;;;;;5062022;28;20204;-38
2022/07/20 05:41:42;;;;;;;4.97;4.05;;;;;;;;;;5074237;28;20212;-34
2022/07/20 05:44:09;;;;;;;5.95;3.92;;;;;;;;;;5069095;28;20210;-41
2022/07/20 05:46:36;;;;;;;6.53;3.80;;;;;;;;;;5068490;28;20252;-37
2022/07/20 05:49:03;;;;;;;5.00;3.45;;;;;;;;;;5070975;28;20212;-42
2022/07/20 05:51:31;;;;;;;6.38;4.05;;;;;;;;;;5050986;28;20211;-38
2022/07/20 05:53:58;;;;;;;5.65;3.50;;;;;;;;;;5064815;28;20298;-35
2022/07/20 05:56:25;;;;;;;4.15;3.50;;;;;;;;;;5075897;28;20261;-38
2022/07/20 05:58:53;;;;;;;5.43;3.75;;;;;;;;;;5062015;28;20213;-38
2022/07/20 06:01:20;;;;;;;9.13;4.20;;;;;;;;;;5060839;28;20203;-40
2022/07/20 06:03:47;;;;;;;3.97;3.58;;;;;;;;;;5075207;28;20193;-33
2022/07/20 06:06:15;;;;;;;7.90;3.90;;;;;;;;;;5046923;28;20204;-40
2022/07/20 06:08:42;;;;;;;5.10;3.47;;;;;;;;;;5062635;28;20204;-33
2022/07/20 06:11:09;;;;;;;6.18;3.88;;;;;;;;;;5075699;28;20208;-33
2022/07/20 06:13:36;;;;;;;9.18;3.80;;;;;;;;;;5072655;28;20427;-38
2022/07/20 06:16:06;;;;;;;6.65;3.65;;;;;;;;;;5055450;28;20236;-39
2022/07/20 06:18:33;;;;;;;3.92;3.38;;;;;;;;;;5070353;28;20238;-36
2022/07/20 06:21:00;;;;;;;6.70;3.70;;;;;;;;;;5051965;28;20216;-37
2022/07/20 06:23:27;;;;;;;3.85;3.50;;;;;;;;;;5062885;28;20224;-39
2022/07/20 06:25:54;;;;;;;4.95;3.53;;;;;;;;;;5075544;28;20197;-36
2022/07/20 06:28:21;;;;;;;5.63;3.28;;;;;;;;;;5066365;28;20221;-36
2022/07/20 06:30:48;;;;;;;4.50;3.10;;;;;;;;;;5066475;28;20205;-37
2022/07/20 06:33:17;;;;;;;4.18;3.30;;;;;;;;;;5072813;28;20251;-40
2022/07/20 06:35:44;;;;;;;5.75;3.83;;;;;;;;;;5051470;28;20202;-40
2022/07/20 06:38:11;;;;;;;4.65;3.58;;;;;;;;;;5058703;28;20309;-42
2022/07/20 06:40:39;;;;;;;6.70;3.75;;;;;;;;;;5074918;28;20209;-42
2022/07/20 06:43:06;;;;;;;8.98;3.90;;;;;;;;;;5060383;28;20210;-36
2022/07/20 06:45:33;;;;;;;5.47;3.53;;;;;;;;;;5058476;28;20201;-40
2022/07/20 06:48:00;;;;;;;5.65;3.70;;;;;;;;;;5068289;28;20249;-36
2022/07/20 06:50:29;;;;;;;4.38;3.50;;;;;;;;;;5046283;28;20205;-36
2022/07/20 06:52:56;;;;;;;6.22;4.30;;;;;;;;;;5056892;28;20207;-43
2022/07/20 06:55:23;;;;;;;6.57;3.38;;;;;;;;;;5074970;28;20292;-39
2022/07/20 06:57:50;;;;;;;4.88;3.38;;;;;;;;;;5067911;28;20299;-39
2022/07/20 07:00:17;;;;;;;5.07;3.92;;;;;;;;;;5050470;28;20205;-32
2022/07/20 07:02:45;;;;;;;5.85;3.30;;;;;;;;;;5073851;28;20200;-42
2022/07/20 07:05:12;;;;;;;5.00;3.35;;;;;;;;;;5057955;28;20232;-33
2022/07/20 07:07:40;;;;;;;6.35;3.75;;;;;;;;;;5055210;28;20236;-36
2022/07/20 07:10:08;;;;;;;5.28;3.80;;;;;;;;;;5073160;28;20213;-36
2022/07/20 07:12:35;;;;;;;5.72;3.50;;;;;;;;;;5057942;28;20206;-41
2022/07/20 07:15:02;;;;;;;3.95;3.42;;;;;;;;;;5036795;28;20207;-34
2022/07/20 07:17:30;;;;;;;4.75;3.10;;;;;;;;;;5042349;28;20217;-36
2022/07/20 07:19:58;;;;;;;4.82;3.55;;;;;;;;;;5041442;28;20257;-37
2022/07/20 07:22:25;;;;;;;7.07;3.38;;;;;;;;;;5048992;28;20205;-36
2022/07/20 07:24:54;;;;;;;6.78;3.20;;;;;;;;;;5073888;28;20197;-38
2022/07/20 07:27:21;;;;;;;5.60;3.15;;;;;;;;;;5073863;28;20534;-38
2022/07/20 07:29:48;;;;;;;5.68;3.70;;;;;;;;;;5051286;28;20207;-39
2022/07/20 07:32:15;;;;;;;4.90;3.80;;;;;;;;;;5063641;28;20212;-38
2022/07/20 07:34:42;;;;;;;6.75;3.42;;;;;;;;;;5063247;28;20233;-41
2022/07/20 07:37:09;;;;;;;15.20;4.68;;;;;;;;;;5053549;28;20229;-37
2022/07/20 07:39:37;;;;;;;5.55;3.80;;;;;;;;;;5056593;28;20207;-42
2022/07/20 07:42:06;;;;;;;10.40;4.10;;;;;;;;;;5043086;28;20202;-40
2022/07/20 07:44:33;;;;;;;7.20;3.97;;;;;;;;;;5051572;28;20228;-41
2022/07/20 07:47:00;;;;;;;4.65;3.33;;;;;;;;;;5057543;28;20229;-34
2022/07/20 07:49:27;;;;;;;5.18;3.58;;;;;;;;;;5044863;28;20217;-39
2022/07/20 07:51:54;;;;;;;5.45;3.38;;;;;;;;;;5049180;28;20203;-43
2022/07/20 07:54:21;;;;;;;3.35;3.10;;;;;;;;;;5071979;28;20199;-35
2022/07/20 07:56:48;;;;;;;6.05;3.13;;;;;;;;;;5071311;28;20269;-43
2022/07/20 07:59:17;;;;;;;4.03;3.05;;;;;;;;;;5049476;28;20202;-36
2022/07/20 08:01:44;;;;;;;5.07;2.85;;;;;;;;;;5056765;28;20221;-40
2022/07/20 08:04:12;;;;;;;5.18;3.58;;;;;;;;;;5060410;28;20556;-40
2022/07/20 08:06:39;;;;;;;4.63;3.50;;;;;;;;;;5048619;28;20214;-37
2022/07/20 08:09:06;;;;;;;8.77;6.75;;;;;;;;;;5064358;28;20206;-40
2022/07/20 08:11:33;;;;;;;7.65;3.20;;;;;;;;;;5053854;28;20209;-37
2022/07/20 08:14:02;;;;;;;4.30;3.03;;;;;;;;;;5048627;28;20263;-37
2022/07/20 08:16:31;;;;;;;4.55;3.50;;;;;;;;;;5059285;28;20229;-40
2022/07/20 08:18:58;;;;;;;7.30;3.22;;;;;;;;;;5058981;28;20210;-37
2022/07/20 08:21:26;;;;;;;3.55;2.88;;;;;;;;;;5049162;28;20201;-40
2022/07/20 08:23:53;;;;;;;3.20;2.70;;;;;;;;;;5054691;28;20202;-37
2022/07/20 08:26:20;;;;;;;2.90;2.60;;;;;;;;;;5053374;28;20228;-37
2022/07/20 08:28:47;;;;;;;4.90;3.13;;;;;;;;;;5051089;28;20209;-37
2022/07/20 08:31:15;;;;;;;5.97;4.05;;;;;;;;;;5063186;28;20201;-33
2022/07/20 08:33:43;;;;;;;4.75;4.18;;;;;;;;;;5073058;28;20212;-39
2022/07/20 08:36:10;;;;;;;7.53;3.13;;;;;;;;;;5055212;28;20694;-37
2022/07/20 08:38:37;;;;;;;5.80;3.25;;;;;;;;;;5056111;28;20435;-40
2022/07/20 08:41:05;;;;;;;4.45;3.42;;;;;;;;;;5061501;28;20209;-40
2022/07/20 08:43:32;;;;;;;4.45;3.00;;;;;;;;;;5044083;28;20298;-40
2022/07/20 08:45:59;;;;;;;5.47;3.35;;;;;;;;;;5053696;28;20309;-39
2022/07/20 08:48:27;;;;;;;4.75;3.17;;;;;;;;;;5050465;28;20199;-35
2022/07/20 08:50:56;;;;;;;6.95;2.95;;;;;;;;;;5043331;28;20212;-37
2022/07/20 08:53:24;;;;;;;6.03;3.28;;;;;;;;;;5056815;28;20252;-38
2022/07/20 08:55:51;;;;;;;5.28;3.08;;;;;;;;;;5056438;28;20201;-35
2022/07/20 08:58:18;;;;;;;9.23;3.78;;;;;;;;;;5048562;28;20221;-36
2022/07/20 09:00:45;;;;;;;4.88;3.80;;;;;;;;;;5045163;28;20202;-42
2022/07/20 09:03:13;;;;;;;10.55;3.72;;;;;;;;;;5057298;28;20204;-37
2022/07/20 09:05:41;;;;;;;10.10;4.28;;;;;;;;;;5045250;28;20206;-38
2022/07/20 09:08:12;;;;;;;5.90;4.07;;;;;;;;;;5056010;28;20233;-33
2022/07/20 09:10:40;;;;;;;5.65;4.15;;;;;;;;;;5059730;28;20204;-41
2022/07/20 09:13:09;;;;;;;7.78;3.28;;;;;;;;;;5052113;28;20216;-42
2022/07/20 09:15:37;;;;;;;5.25;3.58;;;;;;;;;;5047595;28;20205;-41
2022/07/20 09:18:06;;;;;;;7.05;3.95;;;;;;;;;;5054005;28;20235;-39
2022/07/20 09:20:33;;;;;;;3.88;3.42;;;;;;;;;;5052424;28;20206;-38
2022/07/20 09:23:01;;;;;;;3.83;3.53;;;;;;;;;;5038864;28;20214;-41
2022/07/20 09:25:30;;;;;;;6.78;4.05;;;;;;;;;;5071525;28;20299;-42
2022/07/20 09:27:58;;;;;;;4.60;3.70;;;;;;;;;;5065290;28;20221;-37
2022/07/20 09:30:25;;;;;;;6.70;4.25;;;;;;;;;;5054341;28;20201;-38
2022/07/20 09:32:54;;;;;;;4.53;4.07;;;;;;;;;;5068455;28;20205;-41
2022/07/20 09:35:22;;;;;;;4.88;4.03;;;;;;;;;;5052171;28;20205;-39
2022/07/20 09:37:50;;;;;;;5.35;3.75;;;;;;;;;;5051047;28;20222;-34
2022/07/20 09:40:17;;;;;;;4.32;3.80;;;;;;;;;;5055445;28;20215;-36
2022/07/20 09:42:46;;;;;;;6.63;4.22;;;;;;;;;;5072426;28;20201;-34
2022/07/20 09:45:21;;;;;;;6.00;3.72;;;;;;;;;;5057768;28;20223;-41
2022/07/20 09:50:27;;;;;;;6.53;3.88;;;;;;;;;;5040991;28;20218;-38
2022/07/20 09:52:55;;;;;;;3.78;3.47;;;;;;;;;;5042593;28;20229;-38
2022/07/20 09:55:22;;;;;;;7.00;4.03;;;;;;;;;;5051524;28;20241;-41
2022/07/20 09:57:51;;;;;;;6.38;4.25;;;;;;;;;;5045103;28;20222;-35
2022/07/20 10:00:18;;;;;;;6.97;4.10;;;;;;;;;;5070355;28;20201;-36
2022/07/20 10:02:48;;;;;;;4.10;3.50;;;;;;;;;;5059984;28;20206;-35
2022/07/20 10:05:15;;;;;;;6.72;4.07;;;;;;;;;;5044725;28;20209;-38
2022/07/20 10:07:43;;;;;;;4.47;3.90;;;;;;;;;;5053483;28;20213;-36
2022/07/20 10:10:10;;;;;;;4.65;3.85;;;;;;;;;;5070826;28;20205;-36
2022/07/20 10:12:38;;;;;;;5.85;4.05;;;;;;;;;;5071497;28;20205;-35
2022/07/20 10:15:09;;;;;;;10.95;4.22;;;;;;;;;;5049952;28;20241;-36
2022/07/20 10:17:36;;;;;;;7.72;3.90;;;;;;;;;;5049859;28;20228;-41
2022/07/20 10:20:04;;;;;;;4.50;4.05;;;;;;;;;;5054439;28;20585;-39
2022/07/20 10:22:31;;;;;;;6.00;3.40;;;;;;;;;;5046488;28;20215;-35
2022/07/20 10:25:16;;;;;;;8.25;4.10;;;;;;;;;;5070612;28;20292;-38
2022/07/20 10:27:43;;;;;;;5.40;4.45;;;;;;;;;;5056169;28;20296;-39
2022/07/20 10:30:19;;;;;;;5.60;4.00;;;;;;;;;;5064077;28;20224;-35
2022/07/20 10:32:56;;;;;;;5.85;3.88;;;;;;;;;;5075327;28;20197;-35
2022/07/20 10:35:38;;;;;;;5.70;4.28;;;;;;;;;;5061540;28;20686;-37
2022/07/20 10:38:06;;;;;;;9.32;4.57;;;;;;;;;;5064004;28;20230;-40
2022/07/20 10:41:31;;;;;;;4.60;4.05;;;;;;;;;;5069248;28;20202;-42
2022/07/20 10:43:20;;;;;;;10.60;4.38;;;;;;;;;;5051496;28;20208;-38
2022/07/20 10:45:49;;;;;;;8.05;4.05;;;;;;;;;;5071777;28;20198;-35
2022/07/20 10:48:19;;;;;;;7.82;4.03;;;;;;;;;;5067579;28;20233;-42
2022/07/20 10:50:48;;;;;;;5.60;4.22;;;;;;;;;;5050648;28;20214;-37
2022/07/20 10:53:32;;;;;;;5.28;4.78;;;;;;;;;;5068450;28;20201;-37
2022/07/20 10:56:00;;;;;;;4.72;4.28;;;;;;;;;;5054293;28;20213;-38
2022/07/20 10:58:28;;;;;;;6.78;4.63;;;;;;;;;;5038550;28;20225;-36
2022/07/20 11:00:58;;;;;;;8.07;4.50;;;;;;;;;;5046440;28;20210;-40
2022/07/20 11:03:27;;;;;;;5.80;4.18;;;;;;;;;;5074351;28;20222;-39
2022/07/20 11:06:02;;;;;;;6.80;4.30;;;;;;;;;;5050678;28;20289;-41
2022/07/20 11:08:29;;;;;;;9.45;4.70;;;;;;;;;;5061207;28;20196;-42
2022/07/20 11:10:56;;;;;;;6.68;4.50;;;;;;;;;;5073960;28;20228;-41
2022/07/20 11:13:24;;;;;;;5.28;4.57;;;;;;;;;;5060204;28;20209;-39
2022/07/20 11:15:52;;;;;;;4.53;4.13;;;;;;;;;;5061048;28;20288;-38
2022/07/20 11:18:21;;;;;;;7.70;4.50;;;;;;;;;;5069714;28;20317;-37
2022/07/20 11:20:50;;;;;;;5.38;4.20;;;;;;;;;;5053193;28;20201;-38
2022/07/20 11:23:18;;;;;;;6.13;5.03;;;;;;;;;;5065469;28;20201;-43
2022/07/20 11:25:46;;;;;;;7.80;4.43;;;;;;;;;;5073672;28;20209;-39
2022/07/20 11:28:13;;;;;;;8.85;4.10;;;;;;;;;;5059153;28;20217;-39
2022/07/20 11:30:42;;;;;;;4.78;4.22;;;;;;;;;;5057588;28;20228;-39
2022/07/20 11:33:09;;;;;;;5.05;3.97;;;;;;;;;;5071874;28;20201;-34
2022/07/20 11:35:39;;;;;;;6.65;4.50;;;;;;;;;;5055190;28;20202;-40
2022/07/20 11:38:06;;;;;;;8.10;4.45;;;;;;;;;;5056944;28;20259;-34
2022/07/20 11:40:33;;;;;;;6.90;4.18;;;;;;;;;;5052762;28;20198;-38
2022/07/20 11:43:10;;;;;;;7.57;4.57;;;;;;;;;;5051479;28;20292;-37
2022/07/20 11:45:38;;;;;;;5.57;3.97;;;;;;;;;;5061670;28;20211;-36
2022/07/20 11:48:16;;;;;;;4.68;4.20;;;;;;;;;;5070214;28;20224;-34
2022/07/20 11:50:45;;;;;;;8.57;4.10;;;;;;;;;;5049692;28;20198;-40
2022/07/20 11:53:26;;;;;;;7.55;4.10;;;;;;;;;;5066947;28;20262;-38
2022/07/20 11:55:53;;;;;;;5.10;4.30;;;;;;;;;;5062134;28;20249;-38
2022/07/20 11:58:28;;;;;;;10.93;4.78;;;;;;;;;;5049523;28;20222;-38
2022/07/20 12:00:55;;;;;;;5.55;4.57;;;;;;;;;;5059402;28;20232;-37
2022/07/20 12:03:24;;;;;;;4.88;4.20;;;;;;;;;;5065195;28;20224;-39
2022/07/20 12:05:52;;;;;;;6.72;4.68;;;;;;;;;;5046551;28;20199;-36
2022/07/20 12:08:20;;;;;;;6.75;3.92;;;;;;;;;;5050386;28;20248;-37
2022/07/20 12:10:47;;;;;;;5.35;3.95;;;;;;;;;;5047324;28;20202;-37
2022/07/20 12:13:16;;;;;;;5.95;4.00;;;;;;;;;;5067018;28;20204;-35
2022/07/20 12:15:52;;;;;;;6.97;4.18;;;;;;;;;;5066639;28;20202;-37
2022/07/20 12:18:33;;;;;;;5.68;4.32;;;;;;;;;;5043483;28;20222;-38
2022/07/20 12:21:02;;;;;;;8.27;4.10;;;;;;;;;;5039890;28;20207;-33
2022/07/20 12:23:29;;;;;;;6.03;4.65;;;;;;;;;;5057171;28;20210;-38
2022/07/20 12:25:56;;;;;;;6.25;4.47;;;;;;;;;;5052978;28;20202;-40
2022/07/20 12:28:29;;;;;;;5.82;4.35;;;;;;;;;;5051559;28;20225;-37
2022/07/20 12:31:09;;;;;;;4.97;4.45;;;;;;;;;;5047127;28;20215;-36
2022/07/20 12:33:36;;;;;;;5.07;4.15;;;;;;;;;;5058464;28;20276;-41
2022/07/20 12:36:07;;;;;;;7.75;4.43;;;;;;;;;;5046727;28;20218;-37
2022/07/20 12:38:35;;;;;;;6.32;4.07;;;;;;;;;;5054841;28;20217;-40
2022/07/20 12:41:12;;;;;;;9.55;4.80;;;;;;;;;;5054981;28;20202;-38
2022/07/20 12:43:40;;;;;;;6.40;4.45;;;;;;;;;;5044824;28;20199;-36
2022/07/20 12:46:10;;;;;;;4.70;4.20;;;;;;;;;;5056836;28;20237;-36
2022/07/20 12:48:37;;;;;;;7.07;4.18;;;;;;;;;;5050926;28;20248;-42
2022/07/20 12:51:06;;;;;;;5.82;4.93;;;;;;;;;;5044107;28;20206;-34
2022/07/20 12:53:34;;;;;;;10.10;4.80;;;;;;;;;;5054209;28;20201;-38
2022/07/20 12:56:01;;;;;;;11.65;4.65;;;;;;;;;;5070825;28;20551;-36
2022/07/20 12:58:28;;;;;;;5.22;4.15;;;;;;;;;;5053985;28;20222;-33
2022/07/20 13:00:55;;;;;;;7.35;4.20;;;;;;;;;;5044573;28;20213;-37
2022/07/20 13:03:22;;;;;;;6.72;4.25;;;;;;;;;;5058893;28;20212;-38
2022/07/20 13:05:49;;;;;;;6.55;4.40;;;;;;;;;;5050721;28;20203;-39
2022/07/20 13:08:18;;;;;;;5.32;4.25;;;;;;;;;;5054137;28;20217;-35
2022/07/20 13:10:45;;;;;;;6.57;4.80;;;;;;;;;;5053715;28;20238;-43
2022/07/20 13:13:12;;;;;;;7.15;4.30;;;;;;;;;;5048546;28;20221;-39
2022/07/20 13:15:39;;;;;;;7.05;4.03;;;;;;;;;;5063764;28;20205;-37
2022/07/20 13:18:07;;;;;;;5.03;4.00;;;;;;;;;;5062099;28;20222;-39
2022/07/20 13:20:34;;;;;;;6.95;4.18;;;;;;;;;;5043874;28;20209;-33
2022/07/20 13:23:01;;;;;;;7.68;4.57;;;;;;;;;;5062454;28;20233;-35
2022/07/20 13:25:30;;;;;;;4.20;3.70;;;;;;;;;;5072630;28;20207;-34
2022/07/20 13:27:59;;;;;;;11.90;4.30;;;;;;;;;;5059005;28;20217;-41
2022/07/20 13:30:26;;;;;;;8.90;4.32;;;;;;;;;;5046652;28;20205;-38
2022/07/20 13:32:54;;;;;;;5.35;4.07;;;;;;;;;;5061503;28;20251;-34
2022/07/20 13:35:21;;;;;;;5.68;4.38;;;;;;;;;;5056833;28;20284;-39
2022/07/20 13:37:48;;;;;;;8.30;4.75;;;;;;;;;;5056769;28;20231;-35
2022/07/20 13:40:15;;;;;;;7.63;4.65;;;;;;;;;;5059997;28;20224;-38
2022/07/20 13:42:44;;;;;;;5.25;4.28;;;;;;;;;;5052617;28;20198;-35
2022/07/20 13:45:11;;;;;;;6.65;4.15;;;;;;;;;;5047371;28;20301;-37
2022/07/20 13:47:39;;;;;;;5.20;4.57;;;;;;;;;;5056562;28;20252;-38
2022/07/20 13:50:07;;;;;;;5.25;4.70;;;;;;;;;;5046944;28;20233;-37
2022/07/20 13:52:39;;;;;;;8.77;5.22;;;;;;;;;;5050210;28;20210;-40
2022/07/20 13:55:07;;;;;;;9.07;4.80;;;;;;;;;;5041209;28;20210;-38
2022/07/20 13:57:34;;;;;;;7.25;4.72;;;;;;;;;;5054553;28;20221;-34
2022/07/20 14:00:03;;;;;;;7.63;5.75;;;;;;;;;;5067788;28;20232;-37
2022/07/20 14:02:30;;;;;;;10.52;7.53;;;;;;;;;;5047269;28;20204;-38
2022/07/20 14:04:57;;;;;;;12.13;8.05;;;;;;;;;;5053118;28;20202;-34
2022/07/20 14:07:24;;;;;;;10.20;9.23;;;;;;;;;;5054247;28;20225;-37
2022/07/20 14:09:52;;;;;;;9.80;8.80;;;;;;;;;;5073116;28;20201;-35
2022/07/20 14:12:19;;;;;;;9.90;8.90;;;;;;;;;;5066974;28;20205;-37
2022/07/20 14:14:46;;;;;;;11.95;9.45;;;;;;;;;;5040270;28;20203;-39
2022/07/20 14:17:15;;;;;;;10.88;9.75;;;;;;;;;;5068463;28;20241;-34
2022/07/20 14:19:42;;;;;;;15.35;9.95;;;;;;;;;;5066405;28;20225;-38
2022/07/20 14:22:09;;;;;;;11.38;9.52;;;;;;;;;;5048400;28;20206;-35
2022/07/20 14:24:37;;;;;;;13.35;10.30;;;;;;;;;;5074875;28;20201;-38
2022/07/20 14:27:06;;;;;;;12.25;9.68;;;;;;;;;;5063844;28;20313;-39
2022/07/20 14:29:33;;;;;;;11.88;9.80;;;;;;;;;;5051247;28;20220;-38
2022/07/20 14:32:00;;;;;;;16.35;10.40;;;;;;;;;;5060610;28;20205;-39
2022/07/20 14:34:29;;;;;;;15.55;10.10;;;;;;;;;;5067996;28;20205;-34
2022/07/20 14:36:56;;;;;;;17.75;10.40;;;;;;;;;;5056571;28;20225;-38
2022/07/20 14:39:24;;;;;;;15.13;10.68;;;;;;;;;;5067819;28;20213;-38
2022/07/20 14:41:51;;;;;;;17.50;11.00;;;;;;;;;;5056829;28;20205;-39
2022/07/20 14:44:18;;;;;;;11.95;10.65;;;;;;;;;;5066755;28;20212;-38
2022/07/20 14:46:45;;;;;;;16.33;10.48;;;;;;;;;;5070546;28;20228;-38
2022/07/20 14:49:12;;;;;;;14.75;10.77;;;;;;;;;;5070739;28;20463;-36
2022/07/20 14:51:41;;;;;;;18.33;11.88;;;;;;;;;;5047769;28;20202;-32
2022/07/20 14:54:08;;;;;;;17.58;12.93;;;;;;;;;;5072866;28;20205;-37